Time;durP1;ratioP1;P1;durP2;ratioP2;P2;SDS_P1;SDS_P2;PMS_P1;PMS_P2;Temp;Humidity;BMP_temperature;BMP_pressure;BME280_temperature;BME280_humidity;BME280_pressure;Samples;Min_cycle;Max_cycle;Signal;HPM_P1;HPM_P2
2021/08/13 00:02:11;;;;;;;9.20;6.40;;;;;;;17.73;100.00;99101.66;4859841;29;20086;-66
2021/08/13 00:04:38;;;;;;;7.35;5.63;;;;;;;17.72;100.00;99104.41;4856766;29;20042;-68
2021/08/13 00:07:04;;;;;;;9.32;6.82;;;;;;;17.66;100.00;99099.56;4838789;29;20045;-65
2021/08/13 00:09:30;;;;;;;9.68;6.82;;;;;;;17.64;100.00;99097.06;4840828;29;20517;-66
2021/08/13 00:11:56;;;;;;;12.23;5.95;;;;;;;17.62;100.00;99103.38;4845575;29;20068;-65
2021/08/13 00:14:22;;;;;;;10.05;7.32;;;;;;;17.57;100.00;99113.38;4832660;29;20094;-63
2021/08/13 00:16:48;;;;;;;12.98;6.43;;;;;;;17.55;100.00;99112.63;4841954;29;20509;-66
2021/08/13 00:19:14;;;;;;;9.43;5.88;;;;;;;17.53;100.00;99111.91;4840706;29;20182;-65
2021/08/13 00:21:41;;;;;;;14.80;6.38;;;;;;;17.41;100.00;99097.00;4824346;29;20053;-66
2021/08/13 00:24:08;;;;;;;9.18;5.78;;;;;;;17.47;100.00;99110.56;4831597;29;20066;-67
2021/08/13 00:26:34;;;;;;;8.80;6.15;;;;;;;17.43;100.00;99108.25;4852309;29;20057;-68
2021/08/13 00:29:00;;;;;;;8.50;5.53;;;;;;;17.36;100.00;99106.06;4809464;29;20045;-68
2021/08/13 00:31:26;;;;;;;9.00;5.93;;;;;;;17.33;100.00;99094.91;4844918;29;20113;-68
2021/08/13 00:33:53;;;;;;;7.07;5.80;;;;;;;17.28;100.00;99099.66;4855423;29;20128;-66
2021/08/13 00:36:19;;;;;;;8.52;6.00;;;;;;;17.25;100.00;99100.72;4839374;29;20124;-66
2021/08/13 00:38:45;;;;;;;9.43;6.07;;;;;;;17.21;100.00;99094.03;4848080;29;20045;-67
2021/08/13 00:41:11;;;;;;;8.73;5.88;;;;;;;17.18;100.00;99102.09;4824034;29;20525;-67
2021/08/13 00:43:37;;;;;;;10.30;5.50;;;;;;;16.94;100.00;99062.66;4823662;29;20135;-66
2021/08/13 00:46:04;;;;;;;9.60;5.25;;;;;;;17.11;100.00;99092.16;4833850;29;20230;-67
2021/08/13 00:48:42;;;;;;;9.32;5.65;;;;;;;17.09;100.00;99091.41;4836817;29;20048;-67
2021/08/13 00:51:17;;;;;;;13.35;6.60;;;;;;;17.06;100.00;99092.44;4823829;29;20050;-66
2021/08/13 00:53:43;;;;;;;20.17;8.77;;;;;;;17.02;100.00;99091.00;4824155;29;20046;-65
2021/08/13 00:56:12;;;;;;;22.10;10.03;;;;;;;17.00;100.00;99094.69;4837167;29;20526;-66
2021/08/13 00:58:59;;;;;;;17.13;7.63;;;;;;;16.97;100.00;99105.38;4817135;29;20072;-64
2021/08/13 01:01:33;;;;;;;16.85;8.10;;;;;;;16.91;100.00;99101.41;4838696;29;20141;-66
2021/08/13 01:04:00;;;;;;;18.23;6.63;;;;;;;16.87;100.00;99095.53;4854421;29;20054;-67
2021/08/13 01:06:29;;;;;;;14.02;7.13;;;;;;;16.84;100.00;99092.28;4823343;29;20053;-67
2021/08/13 01:08:55;;;;;;;7.55;5.60;;;;;;;16.81;100.00;99090.69;4835608;29;20079;-67
2021/08/13 01:11:25;;;;;;;11.15;6.53;;;;;;;16.79;100.00;99087.38;4841374;29;20077;-65
2021/08/13 01:13:54;;;;;;;10.73;5.55;;;;;;;16.80;100.00;99086.38;4823478;29;20066;-66
2021/08/13 01:16:22;;;;;;;8.90;5.55;;;;;;;16.81;100.00;99082.81;4838810;29;20422;-67
2021/08/13 01:18:55;;;;;;;7.95;5.90;;;;;;;16.84;100.00;99087.03;4825984;29;20132;-68
2021/08/13 01:21:37;;;;;;;7.72;5.68;;;;;;;16.87;100.00;99089.44;4808862;29;20098;-69
2021/08/13 01:24:11;;;;;;;8.55;5.00;;;;;;;16.85;100.00;99079.03;4839255;29;20094;-70
2021/08/13 01:26:45;;;;;;;8.65;4.57;;;;;;;16.98;100.00;99097.41;4805203;29;20084;-67
2021/08/13 01:29:46;;;;;;;6.50;4.80;;;;;;;16.97;100.00;99100.13;4812326;29;20130;-67
2021/08/13 01:32:12;;;;;;;7.50;4.38;;;;;;;16.98;100.00;99109.69;4802988;29;20064;-68
2021/08/13 01:34:51;;;;;;;7.90;5.45;;;;;;;17.07;100.00;99122.19;4827279;29;20060;-66
2021/08/13 01:37:19;;;;;;;10.77;4.10;;;;;;;17.04;100.00;99122.41;4814049;29;20543;-67
2021/08/13 01:39:52;;;;;;;5.57;4.32;;;;;;;16.96;100.00;99109.00;4830166;29;20049;-68
2021/08/13 01:42:20;;;;;;;9.38;4.70;;;;;;;16.93;100.00;99118.75;4810765;29;20041;-68
2021/08/13 01:44:47;;;;;;;6.68;4.38;;;;;;;16.99;100.00;99129.78;4809032;29;20064;-67
2021/08/13 01:47:15;;;;;;;12.00;5.13;;;;;;;16.97;100.00;99122.00;4809750;29;20050;-68
2021/08/13 01:49:44;;;;;;;7.35;5.45;;;;;;;16.97;100.00;99126.41;4821096;29;20061;-66
2021/08/13 01:52:11;;;;;;;7.05;4.50;;;;;;;17.02;100.00;99133.00;4808067;29;20056;-65
2021/08/13 01:54:48;;;;;;;9.63;4.68;;;;;;;17.03;100.00;99139.94;5067053;28;20379;-65
2021/08/13 01:57:14;;;;;;;7.47;4.28;;;;;;;17.04;100.00;99131.13;5065496;28;20074;-66
2021/08/13 01:59:43;;;;;;;4.75;4.10;;;;;;;17.08;100.00;99148.34;5065679;28;20585;-65
2021/08/13 02:02:09;;;;;;;10.00;4.28;;;;;;;17.06;100.00;99154.69;5045411;28;20052;-65
2021/08/13 02:04:41;;;;;;;6.43;3.80;;;;;;;16.91;100.00;99148.66;5057652;28;20544;-66
2021/08/13 02:07:10;;;;;;;5.60;3.33;;;;;;;16.83;100.00;99148.38;5048777;28;20107;-67
2021/08/13 02:09:36;;;;;;;10.70;3.58;;;;;;;16.71;100.00;99121.16;5049155;28;20045;-66
2021/08/13 02:12:03;;;;;;;5.90;4.00;;;;;;;16.81;100.00;99139.75;5066899;28;20044;-65
2021/08/13 02:14:33;;;;;;;5.72;3.85;;;;;;;16.81;100.00;99145.00;5064482;28;20155;-63
2021/08/13 02:17:00;;;;;;;6.65;4.50;;;;;;;16.71;100.00;99136.06;5065687;28;20045;-66
2021/08/13 02:19:40;;;;;;;5.15;3.60;;;;;;;16.73;100.00;99156.03;5044459;28;20041;-67
2021/08/13 02:22:08;;;;;;;4.63;3.15;;;;;;;16.69;100.00;99158.97;5045857;28;20136;-66
2021/08/13 02:24:34;;;;;;;5.15;3.13;;;;;;;16.56;100.00;99137.06;5037479;28;20060;-66
2021/08/13 02:27:13;;;;;;;5.65;3.15;;;;;;;16.67;99.72;99161.69;5064920;28;20041;-66
2021/08/13 02:29:40;;;;;;;4.82;3.28;;;;;;;16.67;99.34;99156.44;5064844;28;20094;-67
2021/08/13 02:32:09;;;;;;;4.38;2.90;;;;;;;16.74;97.98;99156.88;5065205;28;20036;-65
2021/08/13 02:34:37;;;;;;;7.05;2.72;;;;;;;16.75;96.52;99164.63;5064544;28;20053;-68
2021/08/13 02:37:16;;;;;;;3.75;2.90;;;;;;;16.76;96.08;99152.34;5065071;28;20515;-67
2021/08/13 02:39:51;;;;;;;4.45;2.47;;;;;;;16.80;94.92;99166.97;5048419;28;20076;-67
2021/08/13 02:42:38;;;;;;;;;;;;;;;16.74;94.33;99167.38;5031572;28;20051;-68
2021/08/13 02:45:06;;;;;;;5.18;2.63;;;;;;;16.74;94.41;99157.72;5039409;28;19935;-66
2021/08/13 02:47:35;;;;;;;6.85;2.22;;;;;;;16.82;93.72;99163.28;5063625;28;20546;-66
2021/08/13 02:50:06;;;;;;;4.60;3.03;;;;;;;16.79;94.06;99163.50;5064883;28;20052;-67
2021/08/13 02:52:58;;;;;;;;;;;;;;;16.82;94.05;99155.41;5044814;28;20424;-66
2021/08/13 02:55:33;;;;;;;4.43;3.22;;;;;;;16.88;94.10;99164.66;5058105;28;20392;-67
2021/08/13 02:58:01;;;;;;;4.03;3.13;;;;;;;16.84;94.40;99158.78;5064683;28;20090;-67
2021/08/13 03:00:28;;;;;;;5.20;3.15;;;;;;;16.86;94.25;99169.16;5064560;28;20052;-66
2021/08/13 03:02:56;;;;;;;3.35;2.75;;;;;;;16.88;94.08;99169.91;5044191;28;20044;-66
2021/08/13 03:05:24;;;;;;;6.32;2.78;;;;;;;16.90;90.76;99173.28;5046314;28;20068;-67
2021/08/13 03:07:52;;;;;;;4.53;2.88;;;;;;;16.86;89.70;99167.38;5051590;28;20106;-68
2021/08/13 03:10:18;;;;;;;5.90;2.72;;;;;;;16.88;89.44;99167.28;5034619;28;20131;-69
2021/08/13 03:12:44;;;;;;;3.90;2.38;;;;;;;16.78;89.27;99145.22;5034521;28;20052;-68
2021/08/13 03:15:10;;;;;;;8.02;3.78;;;;;;;16.76;89.59;99147.94;5030665;28;20045;-67
2021/08/13 03:17:39;;;;;;;3.30;2.20;;;;;;;17.00;89.53;99190.06;5034862;28;20045;-66
2021/08/13 03:20:07;;;;;;;3.00;2.13;;;;;;;16.92;87.45;99185.34;5034803;28;20082;-67
2021/08/13 03:22:34;;;;;;;4.22;2.30;;;;;;;16.96;87.19;99193.03;5034265;28;20055;-70
2021/08/13 03:25:00;;;;;;;4.85;1.85;;;;;;;16.90;85.51;99197.72;5050473;28;20036;-66
2021/08/13 03:27:26;;;;;;;3.22;1.65;;;;;;;16.87;85.35;99186.59;5030886;28;20049;-68
2021/08/13 03:29:53;;;;;;;3.38;2.25;;;;;;;16.90;85.48;99192.47;5034530;28;20567;-68
2021/08/13 03:32:19;;;;;;;2.38;1.52;;;;;;;16.94;84.00;99193.13;5050739;28;20083;-68
2021/08/13 03:34:45;;;;;;;5.03;2.00;;;;;;;16.96;84.81;99190.41;5033870;28;20069;-68
2021/08/13 03:37:11;;;;;;;2.72;1.70;;;;;;;17.04;84.28;99177.56;5034316;28;20048;-66
2021/08/13 03:39:40;;;;;;;3.17;2.13;;;;;;;17.06;84.87;99186.19;5050434;28;20080;-65
2021/08/13 03:42:06;;;;;;;4.53;2.15;;;;;;;17.12;84.70;99186.59;5049009;28;20076;-67
2021/08/13 03:44:32;;;;;;;5.05;1.95;;;;;;;17.15;83.22;99185.56;5051244;28;20045;-66
2021/08/13 03:46:59;;;;;;;2.08;1.63;;;;;;;17.14;81.43;99191.75;5049822;28;20041;-65
2021/08/13 03:49:25;;;;;;;4.03;1.75;;;;;;;17.09;80.86;99197.31;5050074;28;20537;-67
2021/08/13 03:51:56;;;;;;;5.20;1.98;;;;;;;17.12;80.44;99204.13;5050098;28;20170;-66
2021/08/13 03:54:23;;;;;;;9.57;2.22;;;;;;;17.20;80.86;99207.94;5050653;28;20072;-65
2021/08/13 03:56:48;;;;;;;5.13;2.03;;;;;;;17.17;81.51;99209.91;5058171;28;20538;-64
2021/08/13 03:59:14;;;;;;;3.92;1.95;;;;;;;17.14;82.10;99194.38;5071316;28;20036;-66
2021/08/13 04:01:41;;;;;;;4.07;2.13;;;;;;;17.19;81.86;99193.09;5050073;28;20488;-64
2021/08/13 04:04:07;;;;;;;2.08;1.40;;;;;;;17.24;81.28;99206.75;5050193;28;20064;-66
2021/08/13 04:06:33;;;;;;;3.53;2.03;;;;;;;17.18;82.24;99203.72;5050178;28;20088;-64
2021/08/13 04:09:02;;;;;;;3.28;1.73;;;;;;;17.21;80.89;99206.16;5039763;28;20554;-67
2021/08/13 04:11:28;;;;;;;6.80;2.20;;;;;;;17.02;81.12;99177.66;5051061;28;20136;-64
2021/08/13 04:13:54;;;;;;;2.70;2.10;;;;;;;17.17;81.89;99204.66;5050172;28;20160;-66
2021/08/13 04:16:23;;;;;;;3.22;1.70;;;;;;;17.17;81.90;99208.13;5028902;28;20084;-67
2021/08/13 04:18:52;;;;;;;4.50;2.37;;;;;;;17.11;81.53;99207.72;5025194;28;20079;-65
2021/08/13 04:21:18;;;;;;;4.20;2.28;;;;;;;17.13;81.81;99205.81;5044391;28;20288;-67
2021/08/13 04:23:44;;;;;;;5.95;2.40;;;;;;;17.11;81.75;99202.47;5046222;28;20037;-64
2021/08/13 04:26:09;;;;;;;9.73;3.35;;;;;;;17.33;81.20;99218.41;5029955;28;20041;-65
2021/08/13 04:28:35;;;;;;;2.85;2.30;;;;;;;17.36;80.16;99210.34;5038601;28;20036;-66
2021/08/13 04:31:02;;;;;;;6.82;2.40;;;;;;;17.52;78.83;99212.75;5046417;28;20045;-68
2021/08/13 04:33:28;;;;;;;7.40;2.25;;;;;;;17.54;77.99;99206.41;5049264;28;20427;-66
2021/08/13 04:35:59;;;;;;;5.00;2.25;;;;;;;17.52;78.56;99196.97;5049584;28;20072;-66
2021/08/13 04:38:28;;;;;;;4.70;2.38;;;;;;;17.73;78.59;99206.84;5049747;28;20048;-65
2021/08/13 04:40:54;;;;;;;3.22;1.90;;;;;;;17.87;76.91;99207.63;5036461;28;20159;-67
2021/08/13 04:43:22;;;;;;;4.53;2.08;;;;;;;17.78;77.30;99212.59;5028765;28;20041;-67
2021/08/13 04:45:48;;;;;;;2.33;1.92;;;;;;;17.66;79.06;99223.13;5034634;28;20475;-66
2021/08/13 04:48:14;;;;;;;6.43;2.53;;;;;;;17.59;80.00;99213.97;5049340;28;20055;-63
2021/08/13 04:50:40;;;;;;;3.75;2.28;;;;;;;17.59;79.41;99208.72;5048824;28;20423;-63
2021/08/13 04:53:08;;;;;;;6.77;2.67;;;;;;;17.61;78.38;99209.47;5028549;28;20462;-63
2021/08/13 04:55:34;;;;;;;3.67;2.42;;;;;;;17.69;77.74;99207.16;5057621;28;20789;-65
2021/08/13 04:58:01;;;;;;;3.65;2.30;;;;;;;17.69;75.77;99197.47;5052625;28;20461;-65
2021/08/13 05:00:28;;;;;;;3.22;2.30;;;;;;;17.77;75.85;99207.44;5049323;28;20439;-64
2021/08/13 05:03:05;;;;;;;5.05;1.75;;;;;;;17.84;74.23;99207.84;5048952;28;20072;-67
2021/08/13 05:05:34;;;;;;;5.35;2.92;;;;;;;17.80;74.49;99191.44;5048975;28;20118;-66
2021/08/13 05:08:00;;;;;;;5.63;2.70;;;;;;;18.04;74.20;99202.84;5049055;28;20051;-67
2021/08/13 05:10:26;;;;;;;4.10;2.38;;;;;;;18.08;73.70;99209.56;5048859;28;20120;-65
2021/08/13 05:12:55;;;;;;;5.93;2.60;;;;;;;17.90;74.47;99194.28;5046726;28;20040;-67
2021/08/13 05:15:21;;;;;;;4.20;2.15;;;;;;;17.90;75.37;99205.59;5048678;28;20044;-69
2021/08/13 05:17:48;;;;;;;5.22;2.25;;;;;;;17.81;76.10;99218.56;5046476;28;20474;-68
2021/08/13 05:20:17;;;;;;;2.40;2.00;;;;;;;17.79;75.90;99209.00;5046229;28;20037;-66
2021/08/13 05:22:53;;;;;;;2.90;1.92;;;;;;;17.97;75.67;99216.53;5047312;28;20072;-66
2021/08/13 05:25:21;;;;;;;4.50;2.25;;;;;;;18.17;74.08;99219.41;5047172;28;20044;-64
2021/08/13 05:27:46;;;;;;;4.05;2.00;;;;;;;18.25;73.87;99218.00;5046769;28;20040;-65
2021/08/13 05:30:14;;;;;;;4.35;2.40;;;;;;;18.17;74.40;99224.66;5046463;28;20425;-65
2021/08/13 05:32:43;;;;;;;4.05;2.78;;;;;;;18.10;74.27;99231.34;5047087;28;20135;-64
2021/08/13 05:35:10;;;;;;;5.22;2.88;;;;;;;18.04;75.21;99228.31;5045098;28;20051;-64
2021/08/13 05:37:36;;;;;;;2.40;2.03;;;;;;;17.93;75.19;99215.94;5046764;28;20057;-67
2021/08/13 05:40:06;;;;;;;6.45;2.63;;;;;;;17.94;75.57;99232.53;5047004;28;20048;-66
2021/08/13 05:42:32;;;;;;;6.88;2.70;;;;;;;17.79;76.41;99245.00;5048493;28;20055;-64
2021/08/13 05:44:59;;;;;;;4.18;2.47;;;;;;;17.70;77.28;99233.31;5047390;28;20045;-63
2021/08/13 05:47:25;;;;;;;4.82;2.83;;;;;;;17.84;77.15;99242.03;5047174;28;20040;-65
2021/08/13 05:49:51;;;;;;;3.75;2.80;;;;;;;18.08;76.45;99240.28;5045876;28;20049;-65
2021/08/13 05:52:17;;;;;;;3.90;2.75;;;;;;;18.15;76.08;99245.00;5046502;28;20075;-65
2021/08/13 05:54:43;;;;;;;5.22;2.40;;;;;;;18.23;75.11;99240.97;5047446;28;20089;-64
2021/08/13 05:57:09;;;;;;;4.63;2.33;;;;;;;18.43;73.99;99245.59;5046866;28;20065;-64
2021/08/13 05:59:34;;;;;;;4.50;2.40;;;;;;;18.50;72.71;99241.56;5046977;28;20096;-66
2021/08/13 06:02:00;;;;;;;2.58;1.92;;;;;;;18.51;73.20;99249.38;5045509;28;20049;-60
2021/08/13 06:04:27;;;;;;;3.28;2.17;;;;;;;18.54;72.01;99237.78;5035759;28;20095;-61
2021/08/13 06:06:53;;;;;;;4.82;2.20;;;;;;;18.87;71.94;99251.09;5045731;28;20049;-59
2021/08/13 06:09:18;;;;;;;2.75;1.65;;;;;;;19.07;70.65;99257.47;5043698;28;20453;-61
2021/08/13 06:11:45;;;;;;;3.90;1.70;;;;;;;18.91;69.75;99251.69;5046459;28;21426;-61
2021/08/13 06:14:11;;;;;;;7.03;1.58;;;;;;;19.01;70.07;99255.28;5045922;28;20049;-60
2021/08/13 06:16:37;;;;;;;2.45;1.63;;;;;;;18.96;70.31;99270.63;5025546;28;20045;-60
2021/08/13 06:19:03;;;;;;;4.57;2.00;;;;;;;18.76;71.46;99271.28;5029943;28;20044;-61
2021/08/13 06:21:30;;;;;;;3.50;1.73;;;;;;;18.73;72.03;99274.16;5046044;28;20405;-59
2021/08/13 06:23:56;;;;;;;2.60;1.52;;;;;;;18.94;71.07;99267.28;5026732;28;20468;-60
2021/08/13 06:26:22;;;;;;;4.65;1.50;;;;;;;18.90;70.97;99271.91;5043147;28;20048;-60
2021/08/13 06:28:49;;;;;;;2.85;1.80;;;;;;;18.81;71.45;99277.88;5046006;28;20058;-60
2021/08/13 06:31:15;;;;;;;2.08;1.73;;;;;;;18.74;71.65;99286.34;5045892;28;20098;-61
2021/08/13 06:33:41;;;;;;;4.13;1.65;;;;;;;18.68;72.17;99271.84;5046620;28;20057;-61
2021/08/13 06:36:07;;;;;;;2.30;1.88;;;;;;;18.63;72.24;99260.81;5045994;28;20044;-59
2021/08/13 06:38:36;;;;;;;3.25;1.83;;;;;;;18.72;72.08;99293.53;5046433;28;20045;-60
2021/08/13 06:41:02;;;;;;;3.55;1.75;;;;;;;18.52;72.95;99287.06;5048160;28;20127;-58
2021/08/13 06:43:28;;;;;;;6.28;2.38;;;;;;;18.58;73.34;99286.63;5050046;28;20033;-60
2021/08/13 06:45:56;;;;;;;3.55;1.40;;;;;;;18.67;73.69;99301.78;5033518;28;20044;-59
2021/08/13 06:48:29;;;;;;;4.72;1.77;;;;;;;18.39;76.43;99297.63;5050087;28;20063;-58
2021/08/13 06:50:56;;;;;;;3.22;1.50;;;;;;;18.23;78.72;99304.94;5033573;28;20056;-59
2021/08/13 06:53:24;;;;;;;3.85;1.95;;;;;;;18.08;81.71;99325.31;5049507;28;20064;-59
2021/08/13 06:55:50;;;;;;;2.80;1.70;;;;;;;17.95;84.54;99315.78;5033145;28;20045;-59
2021/08/13 06:58:16;;;;;;;4.07;2.85;;;;;;;17.79;87.09;99318.63;5048769;28;20064;-59
2021/08/13 07:00:42;;;;;;;5.82;2.80;;;;;;;17.95;87.07;99321.03;5031195;28;20611;-59
2021/08/13 07:03:09;;;;;;;3.58;2.42;;;;;;;18.06;87.40;99318.47;5021225;28;20033;-58
2021/08/13 07:05:35;;;;;;;3.83;2.13;;;;;;;18.19;85.04;99306.13;5028137;28;20462;-58
2021/08/13 07:08:11;;;;;;;8.88;2.53;;;;;;;18.57;84.14;99319.19;5032559;28;20128;-55
2021/08/13 07:10:42;;;;;;;3.83;2.17;;;;;;;19.01;80.78;99318.53;5057333;28;20439;-56
2021/08/13 07:13:08;;;;;;;6.15;2.97;;;;;;;18.96;80.78;99289.91;5032013;28;20041;-57
2021/08/13 07:15:34;;;;;;;6.35;2.40;;;;;;;19.32;79.25;99317.06;5030971;28;20513;-55
2021/08/13 07:18:00;;;;;;;3.85;2.40;;;;;;;19.68;76.71;99324.81;5050048;28;20041;-55
2021/08/13 07:20:28;;;;;;;5.30;2.00;;;;;;;20.24;71.71;99306.34;5037711;28;20194;-58
2021/08/13 07:22:54;;;;;;;4.07;1.80;;;;;;;20.48;67.79;99317.59;5009670;28;20034;-56
2021/08/13 07:25:20;;;;;;;2.88;1.58;;;;;;;20.23;68.63;99331.91;5046329;28;20041;-56
2021/08/13 07:27:46;;;;;;;2.70;1.60;;;;;;;19.92;67.69;99300.13;5031340;28;20053;-56
2021/08/13 07:30:13;;;;;;;4.57;1.95;;;;;;;19.89;68.95;99319.66;5031471;28;20040;-56
2021/08/13 07:32:39;;;;;;;4.07;1.65;;;;;;;20.85;65.21;99314.59;5049484;28;20040;-59
2021/08/13 07:35:06;;;;;;;3.20;1.65;;;;;;;20.79;65.04;99328.28;5050297;28;20047;-56
2021/08/13 07:37:40;;;;;;;2.97;1.70;;;;;;;20.66;65.38;99329.31;5046661;28;20053;-59
2021/08/13 07:40:07;;;;;;;3.05;1.70;;;;;;;21.16;64.50;99342.00;5047161;28;20041;-59
2021/08/13 07:42:34;;;;;;;4.32;1.73;;;;;;;21.10;63.61;99323.00;5045098;28;20062;-60
2021/08/13 07:45:00;;;;;;;2.65;1.63;;;;;;;20.68;64.74;99339.75;5042128;28;20052;-59
2021/08/13 07:47:26;;;;;;;6.68;1.80;;;;;;;20.58;65.14;99338.81;5047632;28;20040;-59
2021/08/13 07:49:53;;;;;;;2.65;1.80;;;;;;;20.45;65.74;99336.34;5044143;28;20052;-61
2021/08/13 07:52:19;;;;;;;2.75;1.50;;;;;;;20.41;65.99;99339.34;5022311;28;20049;-59
2021/08/13 07:54:45;;;;;;;3.40;2.08;;;;;;;20.23;65.66;99342.47;5023279;28;20140;-62
2021/08/13 07:57:12;;;;;;;4.90;2.35;;;;;;;20.22;65.54;99346.06;5045783;28;20516;-59
2021/08/13 07:59:37;;;;;;;2.63;1.75;;;;;;;20.27;65.61;99346.53;5048769;28;20052;-59
2021/08/13 08:02:05;;;;;;;4.70;1.90;;;;;;;20.24;65.88;99353.84;5029479;28;20184;-60
2021/08/13 08:04:32;;;;;;;4.10;1.55;;;;;;;20.48;64.87;99359.00;5049352;28;20128;-59
2021/08/13 08:06:58;;;;;;;4.10;2.03;;;;;;;21.00;63.23;99360.91;5046944;28;20048;-60
2021/08/13 08:09:24;;;;;;;2.38;1.98;;;;;;;23.33;56.54;99351.97;5047143;28;20044;-59
2021/08/13 08:11:50;;;;;;;3.22;1.83;;;;;;;23.78;54.27;99363.63;5051672;28;20041;-60
2021/08/13 08:14:16;;;;;;;2.00;1.35;;;;;;;24.95;51.41;99354.13;5050806;28;20102;-60
2021/08/13 08:16:42;;;;;;;2.35;1.80;;;;;;;24.98;50.23;99354.66;5046955;28;20088;-62
2021/08/13 08:19:07;;;;;;;3.97;1.88;;;;;;;24.61;49.71;99352.09;5049672;28;20045;-64
2021/08/13 08:21:33;;;;;;;4.10;1.60;;;;;;;24.02;51.54;99363.97;5048129;28;20159;-65
2021/08/13 08:23:59;;;;;;;2.63;1.73;;;;;;;23.62;53.01;99363.38;5050673;28;20094;-64
2021/08/13 08:26:25;;;;;;;2.92;1.70;;;;;;;23.63;53.24;99370.38;5048598;28;20037;-63
2021/08/13 08:28:52;;;;;;;2.75;1.70;;;;;;;23.32;53.86;99390.91;5048827;28;20261;-65
2021/08/13 08:31:17;;;;;;;5.75;1.65;;;;;;;23.60;52.65;99373.34;5045950;28;20079;-65
2021/08/13 08:33:43;;;;;;;3.75;1.80;;;;;;;23.86;51.72;99384.16;5047146;28;20095;-62
2021/08/13 08:36:09;;;;;;;3.63;2.30;;;;;;;25.43;48.23;99390.97;5052119;28;20040;-62
2021/08/13 08:38:35;;;;;;;6.22;1.95;;;;;;;25.33;48.28;99396.41;5046852;28;20519;-64
2021/08/13 08:41:05;;;;;;;2.72;1.60;;;;;;;25.40;48.08;99399.25;5047451;28;20044;-62
2021/08/13 08:43:31;;;;;;;3.28;1.60;;;;;;;24.56;50.05;99401.38;5044397;28;20043;-61
2021/08/13 08:45:59;;;;;;;6.40;1.90;;;;;;;24.03;51.23;99400.16;5047510;28;20416;-63
2021/08/13 08:48:28;;;;;;;1.83;1.45;;;;;;;23.55;52.07;99399.47;5046378;28;20540;-64
2021/08/13 08:50:54;;;;;;;4.65;2.17;;;;;;;22.95;54.23;99400.53;5044468;28;20653;-63
2021/08/13 08:53:23;;;;;;;3.58;2.33;;;;;;;22.63;55.39;99382.16;5028049;28;20423;-65
2021/08/13 08:55:49;;;;;;;2.70;2.10;;;;;;;22.07;56.67;99376.56;5047611;28;20053;-65
2021/08/13 08:58:15;;;;;;;1.70;1.50;;;;;;;22.04;56.63;99404.13;5048733;28;20052;-64
2021/08/13 09:00:44;;;;;;;2.67;1.83;;;;;;;21.85;57.38;99398.69;5042943;28;20041;-64
2021/08/13 09:03:10;;;;;;;2.67;1.83;;;;;;;21.57;57.36;99371.09;5043532;28;20041;-66
2021/08/13 09:05:36;;;;;;;2.33;1.67;;;;;;;21.79;57.31;99407.16;5048212;28;20052;-64
2021/08/13 09:08:02;;;;;;;2.50;1.65;;;;;;;21.70;57.69;99397.38;5047380;28;20045;-67
2021/08/13 09:10:29;;;;;;;4.90;1.98;;;;;;;21.64;57.70;99403.16;5044272;28;20032;-63
2021/08/13 09:12:57;;;;;;;4.63;2.10;;;;;;;21.76;58.12;99402.13;5043411;28;20415;-62
2021/08/13 09:15:34;;;;;;;3.53;2.00;;;;;;;21.96;57.63;99409.25;5046180;28;20056;-68
2021/08/13 09:18:16;;;;;;;3.22;1.80;;;;;;;21.82;58.13;99418.34;5048317;28;20040;-68
2021/08/13 09:20:46;;;;;;;3.53;2.10;;;;;;;21.45;59.76;99423.25;5049501;28;20045;-67
2021/08/13 09:23:31;;;;;;;6.00;2.40;;;;;;;21.15;61.37;99433.69;5048908;28;20041;-68
2021/08/13 09:25:59;;;;;;;3.70;2.03;;;;;;;20.90;62.61;99432.16;5047311;28;20446;-68
2021/08/13 09:28:50;;;;;;;2.53;2.10;;;;;;;21.13;62.17;99443.53;5048787;28;20036;-58
2021/08/13 09:31:33;;;;;;;4.43;2.25;;;;;;;21.27;61.85;99437.97;5049544;28;20044;-53
2021/08/13 09:34:12;;;;;;;3.75;2.20;;;;;;;21.39;61.22;99446.72;5046183;28;21476;-53
2021/08/13 09:36:53;;;;;;;3.00;2.05;;;;;;;21.41;60.60;99447.41;5046082;28;20159;-50
2021/08/13 09:39:30;;;;;;;4.35;2.28;;;;;;;21.55;60.21;99450.59;5045334;28;20123;-54
2021/08/13 09:42:00;;;;;;;5.10;2.38;;;;;;;21.58;59.88;99459.25;5044363;28;20419;-54
2021/08/13 09:44:28;;;;;;;2.67;1.80;;;;;;;21.80;58.83;99452.03;5044511;28;20086;-52
2021/08/13 09:47:05;;;;;;;3.17;1.98;;;;;;;21.78;58.64;99459.25;5041601;28;20060;-58
2021/08/13 09:49:33;;;;;;;5.13;2.80;;;;;;;22.61;56.74;99447.75;5042092;28;20044;-57
2021/08/13 09:52:19;;;;;;;4.53;2.95;;;;;;;24.79;50.50;99454.00;5047990;28;20033;-57
2021/08/13 09:54:47;;;;;;;3.80;2.72;;;;;;;25.91;47.61;99454.47;5046425;28;20108;-57
2021/08/13 09:57:15;;;;;;;4.30;2.80;;;;;;;26.27;46.25;99466.72;5047493;28;20504;-56
2021/08/13 10:00:14;;;;;;;5.47;2.67;;;;;;;26.24;45.67;99464.34;5047417;28;20049;-53
2021/08/13 10:02:42;;;;;;;2.97;2.33;;;;;;;26.97;44.21;99462.88;5034765;28;20081;-57
2021/08/13 10:05:21;;;;;;;3.00;2.70;;;;;;;27.91;42.33;99480.38;5044695;28;20044;-57
2021/08/13 10:07:52;;;;;;;3.22;2.78;;;;;;;28.62;40.71;99481.25;5043597;28;20127;-55
2021/08/13 10:10:29;;;;;;;3.50;2.85;;;;;;;29.48;38.65;99481.19;5045422;28;20173;-55
2021/08/13 10:12:58;;;;;;;4.13;2.90;;;;;;;30.43;38.10;99481.50;5044472;28;20401;-59
2021/08/13 10:15:34;;;;;;;5.80;2.90;;;;;;;31.49;35.90;99483.69;5048517;28;20091;-59
2021/08/13 10:18:10;;;;;;;4.13;2.90;;;;;;;31.34;35.25;99489.13;5044903;28;20071;-57
2021/08/13 10:20:47;;;;;;;5.78;2.63;;;;;;;30.35;36.78;99478.09;5049086;28;21794;-57
2021/08/13 10:23:14;;;;;;;3.25;2.40;;;;;;;29.15;38.47;99487.75;5029255;28;20033;-56
2021/08/13 10:25:43;;;;;;;3.60;2.53;;;;;;;28.08;40.65;99485.53;5049616;28;20037;-58
2021/08/13 10:28:12;;;;;;;6.15;2.80;;;;;;;27.20;42.38;99488.97;5048123;28;20075;-54
2021/08/13 10:30:42;;;;;;;3.30;2.42;;;;;;;26.36;43.92;99495.09;5016621;28;20045;-58
2021/08/13 10:33:09;;;;;;;3.13;2.45;;;;;;;26.11;44.92;99486.09;5049338;28;20548;-57
2021/08/13 10:35:48;;;;;;;5.20;2.70;;;;;;;26.68;44.07;99504.25;5054036;28;20040;-56
2021/08/13 10:38:14;;;;;;;7.45;3.40;;;;;;;27.09;43.38;99497.28;5051860;28;20056;-55
2021/08/13 10:40:42;;;;;;;3.95;2.63;;;;;;;27.54;42.45;99510.25;5055698;28;20044;-59
2021/08/13 10:43:10;;;;;;;6.05;2.50;;;;;;;27.38;42.60;99516.34;5027343;28;20041;-58
2021/08/13 10:45:37;;;;;;;4.32;2.67;;;;;;;28.12;41.52;99502.09;5049848;28;20044;-57
2021/08/13 10:48:15;;;;;;;6.55;3.58;;;;;;;29.19;39.38;99523.03;5051170;28;20040;-57
2021/08/13 10:50:43;;;;;;;4.30;2.92;;;;;;;29.48;38.25;99510.66;5030131;28;20516;-55
2021/08/13 10:53:31;;;;;;;6.90;3.20;;;;;;;30.43;37.08;99521.75;5028013;28;20104;-57
2021/08/13 10:56:00;;;;;;;4.60;3.10;;;;;;;31.14;36.04;99515.75;5051284;28;20064;-62
2021/08/13 10:58:35;;;;;;;3.27;2.97;;;;;;;32.50;33.68;99517.47;5033207;28;20049;-69
2021/08/13 11:01:09;;;;;;;5.55;3.80;;;;;;;33.19;33.00;99520.97;5048975;28;20053;-67
2021/08/13 11:03:58;;;;;;;4.35;3.08;;;;;;;32.93;33.00;99526.22;5047492;28;20040;-60
2021/08/13 11:06:48;;;;;;;3.00;2.53;;;;;;;30.89;35.21;99519.75;5035463;28;20143;-61
2021/08/13 11:09:20;;;;;;;4.70;3.20;;;;;;;31.17;34.68;99501.13;5049395;28;20065;-59
2021/08/13 11:11:57;;;;;;;4.95;3.15;;;;;;;31.75;33.96;99521.63;5047282;28;20037;-67
2021/08/13 11:14:28;;;;;;;8.07;3.88;;;;;;;32.59;32.88;99514.44;5033129;28;20139;-57
2021/08/13 11:16:56;;;;;;;6.30;3.50;;;;;;;33.75;31.73;99501.84;5032935;28;20044;-63
2021/08/13 11:19:23;;;;;;;4.85;3.63;;;;;;;34.66;29.96;99509.03;5050555;28;20037;-66
2021/08/13 11:21:55;;;;;;;5.25;3.30;;;;;;;34.28;30.65;99516.19;5049784;28;20067;-66
2021/08/13 11:24:26;;;;;;;4.95;3.47;;;;;;;34.16;30.15;99520.53;5031152;28;20048;-66
2021/08/13 11:26:54;;;;;;;6.72;2.85;;;;;;;34.19;30.30;99515.56;5045281;28;20120;-60
2021/08/13 11:29:29;;;;;;;5.00;2.97;;;;;;;32.93;31.83;99527.06;5049233;28;20045;-58
2021/08/13 11:32:00;;;;;;;5.18;3.15;;;;;;;31.91;33.68;99512.44;5046153;28;20429;-58
2021/08/13 11:34:52;;;;;;;4.25;2.55;;;;;;;30.02;35.68;99539.25;5046793;28;20047;-59
2021/08/13 11:37:38;;;;;;;6.40;3.25;;;;;;;28.74;37.90;99537.09;5039698;28;20134;-61
2021/08/13 11:40:07;;;;;;;8.02;2.85;;;;;;;27.92;40.16;99532.81;5030661;28;20045;-67
2021/08/13 11:42:35;;;;;;;6.55;2.70;;;;;;;27.31;41.50;99526.03;5030953;28;20041;-65